sensor_id;sensor_type;location;lat;lon;timestamp;pressure;altitude;pressure_sealevel;temperature;humidity
50364;BME280;36272;59.400;17.982;2022-10-31T00:03:30;101521.78;;;4.59;77.71
50364;BME280;36272;59.400;17.982;2022-10-31T00:08:31;101529.19;;;4.55;77.97
50364;BME280;36272;59.400;17.982;2022-10-31T00:13:33;101531.84;;;4.55;78.06
50364;BME280;36272;59.400;17.982;2022-10-31T00:18:34;101513.47;;;4.54;78.10
50364;BME280;36272;59.400;17.982;2022-10-31T00:23:36;101513.28;;;4.55;77.89
50364;BME280;36272;59.400;17.982;2022-10-31T00:28:38;101501.88;;;4.55;77.85
50364;BME280;36272;59.400;17.982;2022-10-31T00:33:41;101505.53;;;4.54;78.28
50364;BME280;36272;59.400;17.982;2022-10-31T00:38:43;101518.91;;;4.52;78.46
50364;BME280;36272;59.400;17.982;2022-10-31T00:43:45;101516.13;;;4.54;78.59
50364;BME280;36272;59.400;17.982;2022-10-31T00:48:47;101524.06;;;4.54;78.72
50364;BME280;36272;59.400;17.982;2022-10-31T00:53:48;101508.84;;;4.56;79.15
50364;BME280;36272;59.400;17.982;2022-10-31T00:58:50;101516.47;;;4.59;79.06
50364;BME280;36272;59.400;17.982;2022-10-31T01:03:52;101517.13;;;4.61;79.11
50364;BME280;36272;59.400;17.982;2022-10-31T01:08:53;101506.53;;;4.61;79.27
50364;BME280;36272;59.400;17.982;2022-10-31T01:13:55;101516.28;;;4.60;79.27
50364;BME280;36272;59.400;17.982;2022-10-31T01:18:56;101503.22;;;4.59;79.40
50364;BME280;36272;59.400;17.982;2022-10-31T01:23:58;101494.09;;;4.61;79.50
50364;BME280;36272;59.400;17.982;2022-10-31T01:29:03;101503.53;;;4.64;79.24
50364;BME280;36272;59.400;17.982;2022-10-31T01:34:06;101490.47;;;4.63;79.29
50364;BME280;36272;59.400;17.982;2022-10-31T01:39:12;101490.28;;;4.64;79.32
50364;BME280;36272;59.400;17.982;2022-10-31T01:54:23;101490.47;;;4.63;79.52
50364;BME280;36272;59.400;17.982;2022-10-31T01:59:29;101497.41;;;4.64;79.31
50364;BME280;36272;59.400;17.982;2022-10-31T02:04:32;101513.50;;;4.62;79.45
50364;BME280;36272;59.400;17.982;2022-10-31T02:09:35;101499.56;;;4.60;79.56
50364;BME280;36272;59.400;17.982;2022-10-31T02:14:38;101493.44;;;4.59;79.76
50364;BME280;36272;59.400;17.982;2022-10-31T02:41:31;101489.47;;;4.64;79.84
50364;BME280;36272;59.400;17.982;2022-10-31T02:47:24;101500.41;;;4.60;79.87
50364;BME280;36272;59.400;17.982;2022-10-31T02:52:26;101500.25;;;4.62;80.41
50364;BME280;36272;59.400;17.982;2022-10-31T02:57:31;101498.41;;;4.63;80.10
50364;BME280;36272;59.400;17.982;2022-10-31T03:18:24;101501.41;;;4.76;80.25
50364;BME280;36272;59.400;17.982;2022-10-31T03:23:30;101506.72;;;4.84;80.38
50364;BME280;36272;59.400;17.982;2022-10-31T03:28:41;101498.59;;;4.94;80.46
50364;BME280;36272;59.400;17.982;2022-10-31T03:33:46;101499.28;;;5.04;80.74
50364;BME280;36272;59.400;17.982;2022-10-31T03:38:49;101501.41;;;5.17;80.78
50364;BME280;36272;59.400;17.982;2022-10-31T03:43:56;101509.19;;;5.27;81.16
50364;BME280;36272;59.400;17.982;2022-10-31T03:48:59;101508.19;;;5.36;81.07
50364;BME280;36272;59.400;17.982;2022-10-31T03:54:11;101497.91;;;5.42;82.08
50364;BME280;36272;59.400;17.982;2022-10-31T03:59:33;101486.75;;;5.55;82.30
50364;BME280;36272;59.400;17.982;2022-10-31T04:04:36;101490.06;;;5.65;81.95
50364;BME280;36272;59.400;17.982;2022-10-31T04:09:42;101476.59;;;5.75;82.46
50364;BME280;36272;59.400;17.982;2022-10-31T04:14:46;101480.53;;;5.87;82.40
50364;BME280;36272;59.400;17.982;2022-10-31T04:19:49;101484.44;;;6.00;82.44
50364;BME280;36272;59.400;17.982;2022-10-31T04:24:50;101475.66;;;6.07;82.84
50364;BME280;36272;59.400;17.982;2022-10-31T04:29:52;101471.78;;;6.18;82.84
50364;BME280;36272;59.400;17.982;2022-10-31T04:34:54;101474.91;;;6.22;83.20
50364;BME280;36272;59.400;17.982;2022-10-31T04:39:55;101472.38;;;6.29;83.25
50364;BME280;36272;59.400;17.982;2022-10-31T04:44:57;101465.72;;;6.33;83.22
50364;BME280;36272;59.400;17.982;2022-10-31T04:49:59;101456.56;;;6.35;83.46
50364;BME280;36272;59.400;17.982;2022-10-31T04:55:00;101454.56;;;6.37;83.73
50364;BME280;36272;59.400;17.982;2022-10-31T05:00:02;101455.50;;;6.45;83.80
50364;BME280;36272;59.400;17.982;2022-10-31T05:05:04;101459.28;;;6.50;83.99
50364;BME280;36272;59.400;17.982;2022-10-31T05:10:12;101447.78;;;6.58;84.09
50364;BME280;36272;59.400;17.982;2022-10-31T05:15:14;101450.19;;;6.68;84.22
50364;BME280;36272;59.400;17.982;2022-10-31T05:20:18;101443.97;;;6.76;84.27
50364;BME280;36272;59.400;17.982;2022-10-31T05:25:21;101440.25;;;6.85;84.50
50364;BME280;36272;59.400;17.982;2022-10-31T05:30:31;101437.16;;;6.96;85.59
50364;BME280;36272;59.400;17.982;2022-10-31T05:35:32;101450.66;;;7.10;85.80
50364;BME280;36272;59.400;17.982;2022-10-31T05:40:34;101444.53;;;7.24;86.25
50364;BME280;36272;59.400;17.982;2022-10-31T05:45:36;101435.53;;;7.40;86.72
50364;BME280;36272;59.400;17.982;2022-10-31T05:50:37;101441.06;;;7.54;87.02
50364;BME280;36272;59.400;17.982;2022-10-31T05:55:39;101442.69;;;7.70;87.97
50364;BME280;36272;59.400;17.982;2022-10-31T06:00:42;101436.53;;;7.84;88.24
50364;BME280;36272;59.400;17.982;2022-10-31T06:05:43;101440.19;;;7.98;88.89
50364;BME280;36272;59.400;17.982;2022-10-31T06:10:45;101448.56;;;8.17;89.25
50364;BME280;36272;59.400;17.982;2022-10-31T06:15:46;101441.38;;;8.32;89.95
50364;BME280;36272;59.400;17.982;2022-10-31T06:20:48;101443.81;;;8.49;89.98
50364;BME280;36272;59.400;17.982;2022-10-31T06:25:50;101452.41;;;8.66;90.35
50364;BME280;36272;59.400;17.982;2022-10-31T06:30:52;101457.06;;;8.86;90.69
50364;BME280;36272;59.400;17.982;2022-10-31T06:35:53;101467.84;;;8.99;90.92
50364;BME280;36272;59.400;17.982;2022-10-31T06:40:55;101463.44;;;9.13;90.90
50364;BME280;36272;59.400;17.982;2022-10-31T06:45:57;101453.69;;;9.27;90.86
50364;BME280;36272;59.400;17.982;2022-10-31T06:50:59;101450.91;;;9.42;91.09
50364;BME280;36272;59.400;17.982;2022-10-31T06:56:01;101462.25;;;9.51;91.14
50364;BME280;36272;59.400;17.982;2022-10-31T07:01:03;101464.94;;;9.58;91.46
50364;BME280;36272;59.400;17.982;2022-10-31T07:06:05;101461.72;;;9.62;91.71
50364;BME280;36272;59.400;17.982;2022-10-31T07:11:06;101473.44;;;9.68;91.72
50364;BME280;36272;59.400;17.982;2022-10-31T07:16:08;101458.91;;;9.77;92.09
50364;BME280;36272;59.400;17.982;2022-10-31T07:21:13;101472.50;;;9.89;92.01
50364;BME280;36272;59.400;17.982;2022-10-31T07:26:14;101473.38;;;9.96;91.91
50364;BME280;36272;59.400;17.982;2022-10-31T07:31:16;101469.50;;;10.06;92.15
50364;BME280;36272;59.400;17.982;2022-10-31T07:36:18;101467.69;;;10.13;92.18
50364;BME280;36272;59.400;17.982;2022-10-31T07:41:20;101455.75;;;10.22;92.32
50364;BME280;36272;59.400;17.982;2022-10-31T07:46:22;101470.81;;;10.30;92.28
50364;BME280;36272;59.400;17.982;2022-10-31T07:51:24;101472.28;;;10.39;92.43
50364;BME280;36272;59.400;17.982;2022-10-31T07:56:29;101453.78;;;10.45;92.77
50364;BME280;36272;59.400;17.982;2022-10-31T08:01:30;101470.25;;;10.55;92.26
50364;BME280;36272;59.400;17.982;2022-10-31T08:06:32;101467.41;;;10.63;92.20
50364;BME280;36272;59.400;17.982;2022-10-31T08:11:35;101478.53;;;10.74;92.12
50364;BME280;36272;59.400;17.982;2022-10-31T08:16:37;101480.38;;;10.80;92.27
50364;BME280;36272;59.400;17.982;2022-10-31T08:21:38;101466.78;;;10.88;92.32
50364;BME280;36272;59.400;17.982;2022-10-31T08:26:40;101475.22;;;10.98;92.34
50364;BME280;36272;59.400;17.982;2022-10-31T08:31:42;101467.19;;;11.05;92.45
50364;BME280;36272;59.400;17.982;2022-10-31T08:36:44;101479.97;;;11.10;92.55
50364;BME280;36272;59.400;17.982;2022-10-31T08:41:47;101478.13;;;11.17;92.64
50364;BME280;36272;59.400;17.982;2022-10-31T08:46:49;101469.06;;;11.18;93.10
50364;BME280;36272;59.400;17.982;2022-10-31T08:51:53;101467.19;;;11.25;92.95
50364;BME280;36272;59.400;17.982;2022-10-31T08:56:55;101467.38;;;11.30;93.10
50364;BME280;36272;59.400;17.982;2022-10-31T09:01:57;101462.41;;;11.41;93.11
50364;BME280;36272;59.400;17.982;2022-10-31T09:06:58;101470.84;;;11.51;93.32
50364;BME280;36272;59.400;17.982;2022-10-31T09:12:00;101485.84;;;11.59;92.91
50364;BME280;36272;59.400;17.982;2022-10-31T09:17:01;101493.06;;;11.65;93.21
50364;BME280;36272;59.400;17.982;2022-10-31T09:22:03;101480.47;;;11.72;93.39
50364;BME280;36272;59.400;17.982;2022-10-31T09:27:04;101487.88;;;11.84;93.05
50364;BME280;36272;59.400;17.982;2022-10-31T09:32:06;101484.72;;;11.94;92.93
50364;BME280;36272;59.400;17.982;2022-10-31T09:37:08;101497.47;;;11.98;93.12
50364;BME280;36272;59.400;17.982;2022-10-31T09:48:13;101475.81;;;12.13;92.85
50364;BME280;36272;59.400;17.982;2022-10-31T09:53:01;101467.13;;;12.18;92.58
50364;BME280;36272;59.400;17.982;2022-10-31T09:58:05;101479.06;;;12.22;92.98
50364;BME280;36272;59.400;17.982;2022-10-31T10:03:32;101462.91;;;12.29;92.81
50364;BME280;36272;59.400;17.982;2022-10-31T10:08:35;101458.78;;;12.33;92.83
50364;BME280;36272;59.400;17.982;2022-10-31T10:30:02;101466.16;;;12.38;93.19
50364;BME280;36272;59.400;17.982;2022-10-31T10:40:25;101472.28;;;12.52;93.15
50364;BME280;36272;59.400;17.982;2022-10-31T10:45:27;101478.03;;;12.55;93.28
50364;BME280;36272;59.400;17.982;2022-10-31T10:50:50;101455.47;;;12.63;93.13
50364;BME280;36272;59.400;17.982;2022-10-31T10:56:14;101462.81;;;12.74;92.88
50364;BME280;36272;59.400;17.982;2022-10-31T11:01:17;101482.66;;;12.73;93.65
50364;BME280;36272;59.400;17.982;2022-10-31T11:06:21;101471.88;;;12.80;93.79
50364;BME280;36272;59.400;17.982;2022-10-31T11:11:29;101473.03;;;12.91;93.62
50364;BME280;36272;59.400;17.982;2022-10-31T11:16:37;101474.00;;;12.97;93.27
50364;BME280;36272;59.400;17.982;2022-10-31T11:21:39;101493.56;;;13.04;93.28
50364;BME280;36272;59.400;17.982;2022-10-31T11:26:43;101482.75;;;13.11;93.25
50364;BME280;36272;59.400;17.982;2022-10-31T11:31:46;101490.53;;;13.19;93.01
50364;BME280;36272;59.400;17.982;2022-10-31T11:36:49;101488.78;;;13.31;92.96
50364;BME280;36272;59.400;17.982;2022-10-31T11:41:52;101464.50;;;13.63;92.94
50364;BME280;36272;59.400;17.982;2022-10-31T11:47:00;101466.13;;;14.13;91.94
50364;BME280;36272;59.400;17.982;2022-10-31T11:52:14;101460.97;;;14.73;90.10
50364;BME280;36272;59.400;17.982;2022-10-31T11:57:31;101456.31;;;15.04;88.96
50364;BME280;36272;59.400;17.982;2022-10-31T12:02:33;101468.59;;;15.12;87.74
50364;BME280;36272;59.400;17.982;2022-10-31T12:07:35;101468.97;;;15.15;87.90
50364;BME280;36272;59.400;17.982;2022-10-31T12:18:04;101442.72;;;15.35;87.24
50364;BME280;36272;59.400;17.982;2022-10-31T12:44:43;101442.63;;;15.18;87.02
50364;BME280;36272;59.400;17.982;2022-10-31T13:06:15;101431.78;;;15.41;85.89
50364;BME280;36272;59.400;17.982;2022-10-31T13:11:25;101442.25;;;15.38;85.80
50364;BME280;36272;59.400;17.982;2022-10-31T13:16:44;101442.94;;;15.33;85.99
50364;BME280;36272;59.400;17.982;2022-10-31T13:27:21;101442.25;;;15.38;85.59
50364;BME280;36272;59.400;17.982;2022-10-31T13:32:29;101450.53;;;15.36;85.57
50364;BME280;36272;59.400;17.982;2022-10-31T13:37:44;101451.03;;;15.33;85.66
50364;BME280;36272;59.400;17.982;2022-10-31T13:58:37;101452.69;;;15.22;85.79
50364;BME280;36272;59.400;17.982;2022-10-31T14:03:40;101428.69;;;15.21;85.54
50364;BME280;36272;59.400;17.982;2022-10-31T14:08:48;101431.69;;;15.24;85.67
50364;BME280;36272;59.400;17.982;2022-10-31T14:13:50;101441.75;;;15.29;85.27
50364;BME280;36272;59.400;17.982;2022-10-31T14:19:14;101431.56;;;15.31;85.15
50364;BME280;36272;59.400;17.982;2022-10-31T14:29:32;101429.25;;;15.23;85.59
50364;BME280;36272;59.400;17.982;2022-10-31T14:45:14;101415.09;;;15.15;85.83
50364;BME280;36272;59.400;17.982;2022-10-31T14:55:26;101414.97;;;15.10;85.78
50364;BME280;36272;59.400;17.982;2022-10-31T15:00:28;101404.53;;;15.02;85.50
50364;BME280;36272;59.400;17.982;2022-10-31T15:05:32;101415.19;;;14.97;85.54
50364;BME280;36272;59.400;17.982;2022-10-31T15:10:40;101412.53;;;14.85;85.94
50364;BME280;36272;59.400;17.982;2022-10-31T15:15:46;101413.09;;;14.75;86.11
50364;BME280;36272;59.400;17.982;2022-10-31T15:20:48;101407.66;;;14.63;86.61
50364;BME280;36272;59.400;17.982;2022-10-31T15:25:51;101415.25;;;14.54;86.45
50364;BME280;36272;59.400;17.982;2022-10-31T15:31:04;101414.78;;;14.46;86.76
50364;BME280;36272;59.400;17.982;2022-10-31T15:36:06;101423.78;;;14.39;86.39
50364;BME280;36272;59.400;17.982;2022-10-31T15:42:00;101417.91;;;14.31;86.39
50364;BME280;36272;59.400;17.982;2022-10-31T15:47:18;101401.97;;;14.17;86.49
50364;BME280;36272;59.400;17.982;2022-10-31T15:57:28;101434.41;;;14.04;87.10
50364;BME280;36272;59.400;17.982;2022-10-31T16:02:30;101432.88;;;13.96;86.85
50364;BME280;36272;59.400;17.982;2022-10-31T16:07:31;101444.09;;;13.93;87.29
50364;BME280;36272;59.400;17.982;2022-10-31T16:12:37;101432.38;;;13.87;87.13
50364;BME280;36272;59.400;17.982;2022-10-31T16:17:45;101439.84;;;13.85;87.29
50364;BME280;36272;59.400;17.982;2022-10-31T16:22:49;101430.34;;;13.82;87.21
50364;BME280;36272;59.400;17.982;2022-10-31T16:27:53;101422.38;;;13.76;87.47
50364;BME280;36272;59.400;17.982;2022-10-31T16:33:29;101428.66;;;13.70;87.46
50364;BME280;36272;59.400;17.982;2022-10-31T16:38:37;101441.75;;;13.66;87.39
50364;BME280;36272;59.400;17.982;2022-10-31T16:43:39;101443.22;;;13.62;87.66
50364;BME280;36272;59.400;17.982;2022-10-31T16:48:40;101436.41;;;13.59;87.98
50364;BME280;36272;59.400;17.982;2022-10-31T16:53:43;101428.00;;;13.56;88.21
50364;BME280;36272;59.400;17.982;2022-10-31T16:58:47;101440.00;;;13.53;88.21
50364;BME280;36272;59.400;17.982;2022-10-31T17:03:49;101438.81;;;13.49;87.90
50364;BME280;36272;59.400;17.982;2022-10-31T17:08:50;101443.00;;;13.45;88.36
50364;BME280;36272;59.400;17.982;2022-10-31T17:13:53;101444.47;;;13.41;88.44
50364;BME280;36272;59.400;17.982;2022-10-31T17:18:55;101450.06;;;13.39;88.49
50364;BME280;36272;59.400;17.982;2022-10-31T17:23:56;101449.69;;;13.35;88.51
50364;BME280;36272;59.400;17.982;2022-10-31T17:28:58;101446.59;;;13.32;88.57
50364;BME280;36272;59.400;17.982;2022-10-31T17:34:02;101447.66;;;13.31;88.76
50364;BME280;36272;59.400;17.982;2022-10-31T17:39:05;101450.56;;;13.29;89.08
50364;BME280;36272;59.400;17.982;2022-10-31T17:44:16;101440.63;;;13.30;89.13
50364;BME280;36272;59.400;17.982;2022-10-31T17:49:18;101444.59;;;13.27;88.77
50364;BME280;36272;59.400;17.982;2022-10-31T17:54:20;101453.47;;;13.28;88.94
50364;BME280;36272;59.400;17.982;2022-10-31T17:59:23;101473.91;;;13.29;89.31
50364;BME280;36272;59.400;17.982;2022-10-31T18:04:27;101458.41;;;13.31;89.42
50364;BME280;36272;59.400;17.982;2022-10-31T18:09:29;101472.22;;;13.34;88.73
50364;BME280;36272;59.400;17.982;2022-10-31T18:14:31;101473.03;;;13.35;88.70
50364;BME280;36272;59.400;17.982;2022-10-31T18:19:32;101468.25;;;13.37;88.79
50364;BME280;36272;59.400;17.982;2022-10-31T18:24:34;101485.16;;;13.44;88.77
50364;BME280;36272;59.400;17.982;2022-10-31T18:29:36;101482.41;;;13.51;88.36
50364;BME280;36272;59.400;17.982;2022-10-31T18:34:38;101483.41;;;13.57;88.45
50364;BME280;36272;59.400;17.982;2022-10-31T18:39:39;101479.66;;;13.58;88.25
50364;BME280;36272;59.400;17.982;2022-10-31T18:44:41;101482.09;;;13.59;88.18
50364;BME280;36272;59.400;17.982;2022-10-31T18:49:43;101487.50;;;13.59;88.01
50364;BME280;36272;59.400;17.982;2022-10-31T18:54:44;101481.34;;;13.52;87.99
50364;BME280;36272;59.400;17.982;2022-10-31T18:59:46;101476.72;;;13.41;88.16
50364;BME280;36272;59.400;17.982;2022-10-31T19:04:48;101479.00;;;13.37;87.95
50364;BME280;36272;59.400;17.982;2022-10-31T19:09:49;101489.81;;;13.30;88.16
50364;BME280;36272;59.400;17.982;2022-10-31T19:14:51;101485.69;;;13.28;87.71
50364;BME280;36272;59.400;17.982;2022-10-31T19:19:55;101477.13;;;13.19;87.93
50364;BME280;36272;59.400;17.982;2022-10-31T19:25:02;101488.53;;;13.14;87.97
50364;BME280;36272;59.400;17.982;2022-10-31T19:30:05;101478.66;;;13.08;87.92
50364;BME280;36272;59.400;17.982;2022-10-31T19:35:08;101477.28;;;12.99;88.12
50364;BME280;36272;59.400;17.982;2022-10-31T19:40:10;101473.84;;;12.91;88.59
50364;BME280;36272;59.400;17.982;2022-10-31T19:45:11;101483.97;;;12.89;88.38
50364;BME280;36272;59.400;17.982;2022-10-31T19:50:13;101485.84;;;12.89;88.41
50364;BME280;36272;59.400;17.982;2022-10-31T19:55:15;101465.84;;;12.85;87.99
50364;BME280;36272;59.400;17.982;2022-10-31T20:00:16;101471.03;;;12.79;87.96
50364;BME280;36272;59.400;17.982;2022-10-31T20:05:18;101468.78;;;12.76;87.77
50364;BME280;36272;59.400;17.982;2022-10-31T20:10:20;101476.91;;;12.70;86.82
50364;BME280;36272;59.400;17.982;2022-10-31T20:15:21;101485.00;;;12.63;86.65
50364;BME280;36272;59.400;17.982;2022-10-31T20:20:26;101488.16;;;12.53;86.77
50364;BME280;36272;59.400;17.982;2022-10-31T20:25:27;101484.09;;;12.44;87.36
50364;BME280;36272;59.400;17.982;2022-10-31T20:30:29;101493.81;;;12.38;87.57
50364;BME280;36272;59.400;17.982;2022-10-31T20:35:31;101499.38;;;12.37;87.72
50364;BME280;36272;59.400;17.982;2022-10-31T20:40:36;101496.75;;;12.30;88.24
50364;BME280;36272;59.400;17.982;2022-10-31T20:45:37;101501.50;;;12.28;87.98
50364;BME280;36272;59.400;17.982;2022-10-31T20:50:39;101509.38;;;12.23;88.07
50364;BME280;36272;59.400;17.982;2022-10-31T20:55:41;101514.53;;;12.17;88.23
50364;BME280;36272;59.400;17.982;2022-10-31T21:00:42;101514.97;;;12.14;88.75
50364;BME280;36272;59.400;17.982;2022-10-31T21:05:55;101497.69;;;12.10;88.44
50364;BME280;36272;59.400;17.982;2022-10-31T21:10:58;101497.94;;;12.02;88.22
50364;BME280;36272;59.400;17.982;2022-10-31T21:16:03;101495.22;;;11.95;87.90
50364;BME280;36272;59.400;17.982;2022-10-31T21:21:10;101492.19;;;11.85;88.32
50364;BME280;36272;59.400;17.982;2022-10-31T21:26:17;101497.78;;;11.77;88.83
50364;BME280;36272;59.400;17.982;2022-10-31T21:31:22;101501.50;;;11.75;88.60
50364;BME280;36272;59.400;17.982;2022-10-31T21:36:23;101516.56;;;11.70;88.85
50364;BME280;36272;59.400;17.982;2022-10-31T21:41:27;101502.97;;;11.65;89.43
50364;BME280;36272;59.400;17.982;2022-10-31T21:46:30;101498.66;;;11.64;89.38
50364;BME280;36272;59.400;17.982;2022-10-31T21:51:34;101493.09;;;11.58;89.83
50364;BME280;36272;59.400;17.982;2022-10-31T21:56:36;101499.91;;;11.54;89.71
50364;BME280;36272;59.400;17.982;2022-10-31T22:01:38;101496.38;;;11.54;90.00
50364;BME280;36272;59.400;17.982;2022-10-31T22:06:40;101507.31;;;11.52;90.02
50364;BME280;36272;59.400;17.982;2022-10-31T22:11:42;101502.78;;;11.53;89.97
50364;BME280;36272;59.400;17.982;2022-10-31T22:16:44;101508.13;;;11.53;90.12
50364;BME280;36272;59.400;17.982;2022-10-31T22:21:46;101495.38;;;11.48;90.18
50364;BME280;36272;59.400;17.982;2022-10-31T22:26:49;101500.94;;;11.47;90.20
50364;BME280;36272;59.400;17.982;2022-10-31T22:31:50;101499.50;;;11.44;90.20
50364;BME280;36272;59.400;17.982;2022-10-31T22:36:53;101491.06;;;11.40;90.16
50364;BME280;36272;59.400;17.982;2022-10-31T22:41:56;101508.97;;;11.40;90.40
50364;BME280;36272;59.400;17.982;2022-10-31T22:46:58;101498.25;;;11.40;90.01
50364;BME280;36272;59.400;17.982;2022-10-31T22:51:59;101502.38;;;11.36;90.32
50364;BME280;36272;59.400;17.982;2022-10-31T22:57:03;101499.50;;;11.30;90.34
50364;BME280;36272;59.400;17.982;2022-10-31T23:02:05;101496.66;;;11.25;90.44
50364;BME280;36272;59.400;17.982;2022-10-31T23:07:06;101500.78;;;11.21;90.44
50364;BME280;36272;59.400;17.982;2022-10-31T23:12:08;101500.34;;;11.18;90.17
50364;BME280;36272;59.400;17.982;2022-10-31T23:17:31;101504.47;;;11.13;90.29
50364;BME280;36272;59.400;17.982;2022-10-31T23:22:33;101497.69;;;11.11;90.53
50364;BME280;36272;59.400;17.982;2022-10-31T23:27:34;101507.78;;;11.09;90.40
50364;BME280;36272;59.400;17.982;2022-10-31T23:32:36;101501.19;;;11.05;90.63
50364;BME280;36272;59.400;17.982;2022-10-31T23:37:38;101506.53;;;11.05;90.48
50364;BME280;36272;59.400;17.982;2022-10-31T23:42:39;101505.28;;;11.00;90.89
50364;BME280;36272;59.400;17.982;2022-10-31T23:47:41;101513.94;;;11.03;90.65
50364;BME280;36272;59.400;17.982;2022-10-31T23:52:43;101514.34;;;10.99;90.12
50364;BME280;36272;59.400;17.982;2022-10-31T23:57:44;101523.81;;;10.95;89.76
